sensor_id;sensor_type;location;lat;lon;timestamp;P1;durP1;ratioP1;P2;durP2;ratioP2
17520;SDS011;8878;-33.370;-70.552;2022-10-18T00:01:42;1.02;;;0.38;;
17520;SDS011;8878;-33.370;-70.552;2022-10-18T00:04:11;0.75;;;0.75;;
17520;SDS011;8878;-33.370;-70.552;2022-10-18T00:06:41;0.45;;;0.45;;
17520;SDS011;8878;-33.370;-70.552;2022-10-18T00:09:10;0.88;;;0.50;;
17520;SDS011;8878;-33.370;-70.552;2022-10-18T00:11:40;0.22;;;0.13;;
17520;SDS011;8878;-33.370;-70.552;2022-10-18T00:14:12;1.35;;;0.90;;
17520;SDS011;8878;-33.370;-70.552;2022-10-18T00:16:42;0.30;;;0.30;;
17520;SDS011;8878;-33.370;-70.552;2022-10-18T00:19:12;1.92;;;0.55;;
17520;SDS011;8878;-33.370;-70.552;2022-10-18T00:21:41;0.47;;;0.45;;
17520;SDS011;8878;-33.370;-70.552;2022-10-18T00:24:10;4.93;;;0.50;;
17520;SDS011;8878;-33.370;-70.552;2022-10-18T00:26:39;1.83;;;0.50;;
17520;SDS011;8878;-33.370;-70.552;2022-10-18T00:29:12;0.30;;;0.30;;
17520;SDS011;8878;-33.370;-70.552;2022-10-18T00:31:43;0.60;;;0.28;;
17520;SDS011;8878;-33.370;-70.552;2022-10-18T00:34:14;0.35;;;0.35;;
17520;SDS011;8878;-33.370;-70.552;2022-10-18T00:36:44;2.05;;;0.20;;
17520;SDS011;8878;-33.370;-70.552;2022-10-18T00:39:14;0.20;;;0.20;;
17520;SDS011;8878;-33.370;-70.552;2022-10-18T00:41:48;0.50;;;0.50;;
17520;SDS011;8878;-33.370;-70.552;2022-10-18T00:47:25;1.03;;;0.63;;
17520;SDS011;8878;-33.370;-70.552;2022-10-18T00:49:55;3.57;;;0.60;;
17520;SDS011;8878;-33.370;-70.552;2022-10-18T00:52:30;3.40;;;0.30;;
17520;SDS011;8878;-33.370;-70.552;2022-10-18T00:55:03;0.50;;;0.50;;
17520;SDS011;8878;-33.370;-70.552;2022-10-18T00:57:33;0.07;;;0.07;;
17520;SDS011;8878;-33.370;-70.552;2022-10-18T01:00:03;2.03;;;0.50;;
17520;SDS011;8878;-33.370;-70.552;2022-10-18T01:02:36;3.33;;;0.80;;
17520;SDS011;8878;-33.370;-70.552;2022-10-18T01:05:09;4.10;;;0.73;;
17520;SDS011;8878;-33.370;-70.552;2022-10-18T01:07:54;5.53;;;0.67;;
17520;SDS011;8878;-33.370;-70.552;2022-10-18T01:10:33;0.83;;;0.33;;
17520;SDS011;8878;-33.370;-70.552;2022-10-18T01:13:13;0.90;;;0.67;;
17520;SDS011;8878;-33.370;-70.552;2022-10-18T01:15:52;0.33;;;0.33;;
17520;SDS011;8878;-33.370;-70.552;2022-10-18T01:18:29;0.93;;;0.57;;
17520;SDS011;8878;-33.370;-70.552;2022-10-18T01:21:16;6.13;;;0.40;;
17520;SDS011;8878;-33.370;-70.552;2022-10-18T01:24:00;0.20;;;0.17;;
17520;SDS011;8878;-33.370;-70.552;2022-10-18T01:27:00;2.03;;;0.47;;
17520;SDS011;8878;-33.370;-70.552;2022-10-18T01:33:01;0.20;;;0.20;;
17520;SDS011;8878;-33.370;-70.552;2022-10-18T01:35:36;1.40;;;0.70;;
17520;SDS011;8878;-33.370;-70.552;2022-10-18T01:38:10;0.30;;;0.30;;
17520;SDS011;8878;-33.370;-70.552;2022-10-18T01:40:42;2.10;;;0.60;;
17520;SDS011;8878;-33.370;-70.552;2022-10-18T01:43:14;1.57;;;0.60;;
17520;SDS011;8878;-33.370;-70.552;2022-10-18T01:45:47;0.60;;;0.60;;
17520;SDS011;8878;-33.370;-70.552;2022-10-18T01:48:18;0.27;;;0.27;;
17520;SDS011;8878;-33.370;-70.552;2022-10-18T01:50:50;0.20;;;0.20;;
17520;SDS011;8878;-33.370;-70.552;2022-10-18T01:53:21;0.10;;;0.10;;
17520;SDS011;8878;-33.370;-70.552;2022-10-18T01:55:54;0.60;;;0.60;;
17520;SDS011;8878;-33.370;-70.552;2022-10-18T01:58:40;0.47;;;0.47;;
17520;SDS011;8878;-33.370;-70.552;2022-10-18T02:01:18;0.20;;;0.20;;
17520;SDS011;8878;-33.370;-70.552;2022-10-18T02:03:58;0.20;;;0.20;;
17520;SDS011;8878;-33.370;-70.552;2022-10-18T02:06:39;0.63;;;0.33;;
17520;SDS011;8878;-33.370;-70.552;2022-10-18T02:09:12;0.40;;;0.40;;
17520;SDS011;8878;-33.370;-70.552;2022-10-18T02:11:48;1.23;;;0.30;;
17520;SDS011;8878;-33.370;-70.552;2022-10-18T02:14:21;2.07;;;0.43;;
17520;SDS011;8878;-33.370;-70.552;2022-10-18T02:16:52;2.30;;;0.37;;
17520;SDS011;8878;-33.370;-70.552;2022-10-18T02:19:26;0.50;;;0.40;;
17520;SDS011;8878;-33.370;-70.552;2022-10-18T02:22:00;0.27;;;0.27;;
17520;SDS011;8878;-33.370;-70.552;2022-10-18T02:24:32;1.23;;;0.47;;
17520;SDS011;8878;-33.370;-70.552;2022-10-18T02:27:04;2.40;;;0.50;;
17520;SDS011;8878;-33.370;-70.552;2022-10-18T02:29:34;0.37;;;0.37;;
17520;SDS011;8878;-33.370;-70.552;2022-10-18T02:32:05;1.37;;;0.60;;
17520;SDS011;8878;-33.370;-70.552;2022-10-18T02:34:41;7.73;;;0.50;;
17520;SDS011;8878;-33.370;-70.552;2022-10-18T02:37:13;1.00;;;0.87;;
17520;SDS011;8878;-33.370;-70.552;2022-10-18T02:39:44;2.00;;;0.60;;
17520;SDS011;8878;-33.370;-70.552;2022-10-18T02:42:15;0.80;;;0.80;;
17520;SDS011;8878;-33.370;-70.552;2022-10-18T02:44:45;1.60;;;0.77;;
17520;SDS011;8878;-33.370;-70.552;2022-10-18T02:47:14;0.30;;;0.30;;
17520;SDS011;8878;-33.370;-70.552;2022-10-18T02:49:45;1.20;;;1.07;;
17520;SDS011;8878;-33.370;-70.552;2022-10-18T02:52:15;1.80;;;0.73;;
17520;SDS011;8878;-33.370;-70.552;2022-10-18T02:54:44;0.50;;;0.50;;
17520;SDS011;8878;-33.370;-70.552;2022-10-18T02:57:13;0.20;;;0.20;;
17520;SDS011;8878;-33.370;-70.552;2022-10-18T02:59:43;0.30;;;0.30;;
17520;SDS011;8878;-33.370;-70.552;2022-10-18T03:02:12;0.70;;;0.50;;
17520;SDS011;8878;-33.370;-70.552;2022-10-18T03:04:42;1.63;;;0.50;;
17520;SDS011;8878;-33.370;-70.552;2022-10-18T03:07:14;0.43;;;0.40;;
17520;SDS011;8878;-33.370;-70.552;2022-10-18T03:09:43;0.60;;;0.60;;
17520;SDS011;8878;-33.370;-70.552;2022-10-18T03:12:12;0.70;;;0.70;;
17520;SDS011;8878;-33.370;-70.552;2022-10-18T03:14:41;0.63;;;0.43;;
17520;SDS011;8878;-33.370;-70.552;2022-10-18T03:17:11;0.50;;;0.30;;
17520;SDS011;8878;-33.370;-70.552;2022-10-18T03:19:40;0.60;;;0.57;;
17520;SDS011;8878;-33.370;-70.552;2022-10-18T03:22:11;0.43;;;0.43;;
17520;SDS011;8878;-33.370;-70.552;2022-10-18T03:24:41;2.17;;;1.43;;
17520;SDS011;8878;-33.370;-70.552;2022-10-18T03:27:10;0.47;;;0.47;;
17520;SDS011;8878;-33.370;-70.552;2022-10-18T03:29:40;0.53;;;0.53;;
17520;SDS011;8878;-33.370;-70.552;2022-10-18T03:32:09;5.83;;;1.03;;
17520;SDS011;8878;-33.370;-70.552;2022-10-18T03:34:39;0.37;;;0.37;;
17520;SDS011;8878;-33.370;-70.552;2022-10-18T03:37:09;5.23;;;0.73;;
17520;SDS011;8878;-33.370;-70.552;2022-10-18T03:39:40;2.93;;;0.57;;
17520;SDS011;8878;-33.370;-70.552;2022-10-18T03:42:09;0.50;;;0.50;;
17520;SDS011;8878;-33.370;-70.552;2022-10-18T03:44:38;5.87;;;0.60;;
17520;SDS011;8878;-33.370;-70.552;2022-10-18T03:47:07;0.43;;;0.43;;
17520;SDS011;8878;-33.370;-70.552;2022-10-18T03:49:37;0.40;;;0.40;;
17520;SDS011;8878;-33.370;-70.552;2022-10-18T03:52:06;0.40;;;0.40;;
17520;SDS011;8878;-33.370;-70.552;2022-10-18T03:54:37;1.03;;;0.93;;
17520;SDS011;8878;-33.370;-70.552;2022-10-18T03:57:06;0.20;;;0.20;;
17520;SDS011;8878;-33.370;-70.552;2022-10-18T03:59:36;0.43;;;0.43;;
17520;SDS011;8878;-33.370;-70.552;2022-10-18T04:02:05;1.80;;;0.30;;
17520;SDS011;8878;-33.370;-70.552;2022-10-18T04:04:35;0.20;;;0.20;;
17520;SDS011;8878;-33.370;-70.552;2022-10-18T04:07:04;0.97;;;0.60;;
17520;SDS011;8878;-33.370;-70.552;2022-10-18T04:09:34;0.23;;;0.23;;
17520;SDS011;8878;-33.370;-70.552;2022-10-18T04:12:05;0.63;;;0.47;;
17520;SDS011;8878;-33.370;-70.552;2022-10-18T04:14:34;0.97;;;0.50;;
17520;SDS011;8878;-33.370;-70.552;2022-10-18T04:17:04;0.40;;;0.40;;
17520;SDS011;8878;-33.370;-70.552;2022-10-18T04:19:33;1.03;;;0.93;;
17520;SDS011;8878;-33.370;-70.552;2022-10-18T04:22:03;0.67;;;0.67;;
17520;SDS011;8878;-33.370;-70.552;2022-10-18T04:24:33;0.50;;;0.50;;
17520;SDS011;8878;-33.370;-70.552;2022-10-18T04:27:03;0.60;;;0.47;;
17520;SDS011;8878;-33.370;-70.552;2022-10-18T04:29:35;0.77;;;0.40;;
17520;SDS011;8878;-33.370;-70.552;2022-10-18T04:32:04;0.60;;;0.60;;
17520;SDS011;8878;-33.370;-70.552;2022-10-18T04:34:34;0.40;;;0.40;;
17520;SDS011;8878;-33.370;-70.552;2022-10-18T04:37:04;1.17;;;0.20;;
17520;SDS011;8878;-33.370;-70.552;2022-10-18T04:39:33;0.10;;;0.10;;
17520;SDS011;8878;-33.370;-70.552;2022-10-18T04:42:03;2.23;;;0.63;;
17520;SDS011;8878;-33.370;-70.552;2022-10-18T04:44:34;0.40;;;0.40;;
17520;SDS011;8878;-33.370;-70.552;2022-10-18T04:47:03;1.70;;;0.83;;
17520;SDS011;8878;-33.370;-70.552;2022-10-18T04:49:33;0.60;;;0.60;;
17520;SDS011;8878;-33.370;-70.552;2022-10-18T04:52:02;0.73;;;0.73;;
17520;SDS011;8878;-33.370;-70.552;2022-10-18T04:54:32;1.43;;;1.00;;
17520;SDS011;8878;-33.370;-70.552;2022-10-18T04:57:01;1.03;;;0.67;;
17520;SDS011;8878;-33.370;-70.552;2022-10-18T04:59:32;5.63;;;0.60;;
17520;SDS011;8878;-33.370;-70.552;2022-10-18T05:02:02;1.17;;;0.67;;
17520;SDS011;8878;-33.370;-70.552;2022-10-18T05:04:32;1.57;;;1.27;;
17520;SDS011;8878;-33.370;-70.552;2022-10-18T05:07:01;1.53;;;1.03;;
17520;SDS011;8878;-33.370;-70.552;2022-10-18T05:09:31;1.03;;;0.93;;
17520;SDS011;8878;-33.370;-70.552;2022-10-18T05:12:00;1.67;;;0.77;;
17520;SDS011;8878;-33.370;-70.552;2022-10-18T05:14:29;1.10;;;1.00;;
17520;SDS011;8878;-33.370;-70.552;2022-10-18T05:17:01;0.90;;;0.83;;
17520;SDS011;8878;-33.370;-70.552;2022-10-18T05:19:31;1.20;;;1.10;;
17520;SDS011;8878;-33.370;-70.552;2022-10-18T05:22:00;3.50;;;0.80;;
17520;SDS011;8878;-33.370;-70.552;2022-10-18T05:24:30;0.73;;;0.73;;
17520;SDS011;8878;-33.370;-70.552;2022-10-18T05:26:59;1.57;;;1.47;;
17520;SDS011;8878;-33.370;-70.552;2022-10-18T05:29:28;3.77;;;1.43;;
17520;SDS011;8878;-33.370;-70.552;2022-10-18T05:31:59;0.90;;;0.90;;
17520;SDS011;8878;-33.370;-70.552;2022-10-18T05:34:29;7.40;;;0.90;;
17520;SDS011;8878;-33.370;-70.552;2022-10-18T05:36:58;0.30;;;0.30;;
17520;SDS011;8878;-33.370;-70.552;2022-10-18T05:39:28;0.80;;;0.80;;
17520;SDS011;8878;-33.370;-70.552;2022-10-18T05:41:57;1.50;;;1.40;;
17520;SDS011;8878;-33.370;-70.552;2022-10-18T05:44:28;1.07;;;1.07;;
17520;SDS011;8878;-33.370;-70.552;2022-10-18T05:46:59;7.63;;;1.63;;
17520;SDS011;8878;-33.370;-70.552;2022-10-18T05:49:29;2.67;;;1.07;;
17520;SDS011;8878;-33.370;-70.552;2022-10-18T05:51:58;1.17;;;1.10;;
17520;SDS011;8878;-33.370;-70.552;2022-10-18T05:54:27;2.57;;;1.77;;
17520;SDS011;8878;-33.370;-70.552;2022-10-18T05:56:57;0.63;;;0.63;;
17520;SDS011;8878;-33.370;-70.552;2022-10-18T05:59:26;1.33;;;0.83;;
17520;SDS011;8878;-33.370;-70.552;2022-10-18T06:01:55;1.63;;;1.53;;
17520;SDS011;8878;-33.370;-70.552;2022-10-18T06:04:27;1.50;;;0.93;;
17520;SDS011;8878;-33.370;-70.552;2022-10-18T06:06:56;1.47;;;1.37;;
17520;SDS011;8878;-33.370;-70.552;2022-10-18T06:09:26;2.27;;;0.70;;
17520;SDS011;8878;-33.370;-70.552;2022-10-18T06:11:55;0.87;;;0.87;;
17520;SDS011;8878;-33.370;-70.552;2022-10-18T06:14:24;1.57;;;1.47;;
17520;SDS011;8878;-33.370;-70.552;2022-10-18T06:16:54;1.27;;;0.67;;
17520;SDS011;8878;-33.370;-70.552;2022-10-18T06:19:23;3.93;;;1.03;;
17520;SDS011;8878;-33.370;-70.552;2022-10-18T06:21:54;2.97;;;1.37;;
17520;SDS011;8878;-33.370;-70.552;2022-10-18T06:24:24;1.77;;;1.07;;
17520;SDS011;8878;-33.370;-70.552;2022-10-18T06:26:53;1.67;;;1.57;;
17520;SDS011;8878;-33.370;-70.552;2022-10-18T06:29:22;2.57;;;1.30;;
17520;SDS011;8878;-33.370;-70.552;2022-10-18T06:31:51;2.67;;;1.70;;
17520;SDS011;8878;-33.370;-70.552;2022-10-18T06:34:21;2.13;;;1.53;;
17520;SDS011;8878;-33.370;-70.552;2022-10-18T06:36:50;4.63;;;1.87;;
17520;SDS011;8878;-33.370;-70.552;2022-10-18T06:39:21;0.70;;;0.70;;
17520;SDS011;8878;-33.370;-70.552;2022-10-18T06:41:51;2.80;;;2.30;;
17520;SDS011;8878;-33.370;-70.552;2022-10-18T06:44:20;1.53;;;1.43;;
17520;SDS011;8878;-33.370;-70.552;2022-10-18T06:46:50;2.63;;;1.37;;
17520;SDS011;8878;-33.370;-70.552;2022-10-18T06:49:19;2.13;;;1.33;;
17520;SDS011;8878;-33.370;-70.552;2022-10-18T06:51:48;0.80;;;0.80;;
17520;SDS011;8878;-33.370;-70.552;2022-10-18T06:54:18;0.97;;;0.97;;
17520;SDS011;8878;-33.370;-70.552;2022-10-18T06:56:49;1.53;;;1.07;;
17520;SDS011;8878;-33.370;-70.552;2022-10-18T06:59:18;1.70;;;1.60;;
17520;SDS011;8878;-33.370;-70.552;2022-10-18T07:01:48;7.13;;;1.67;;
17520;SDS011;8878;-33.370;-70.552;2022-10-18T07:04:17;2.07;;;1.83;;
17520;SDS011;8878;-33.370;-70.552;2022-10-18T07:06:46;1.77;;;1.30;;
17520;SDS011;8878;-33.370;-70.552;2022-10-18T07:09:16;1.23;;;0.73;;
17520;SDS011;8878;-33.370;-70.552;2022-10-18T07:11:45;2.13;;;1.30;;
17520;SDS011;8878;-33.370;-70.552;2022-10-18T07:14:17;1.23;;;1.13;;
17520;SDS011;8878;-33.370;-70.552;2022-10-18T07:16:48;2.93;;;1.60;;
17520;SDS011;8878;-33.370;-70.552;2022-10-18T07:19:17;1.07;;;1.07;;
17520;SDS011;8878;-33.370;-70.552;2022-10-18T07:21:46;1.53;;;1.17;;
17520;SDS011;8878;-33.370;-70.552;2022-10-18T07:24:15;1.17;;;1.07;;
17520;SDS011;8878;-33.370;-70.552;2022-10-18T07:26:45;0.87;;;0.87;;
17520;SDS011;8878;-33.370;-70.552;2022-10-18T07:29:16;1.10;;;1.10;;
17520;SDS011;8878;-33.370;-70.552;2022-10-18T07:31:45;1.53;;;1.27;;
17520;SDS011;8878;-33.370;-70.552;2022-10-18T07:34:15;1.10;;;1.00;;
17520;SDS011;8878;-33.370;-70.552;2022-10-18T07:36:44;0.93;;;0.90;;
17520;SDS011;8878;-33.370;-70.552;2022-10-18T07:39:13;2.70;;;1.60;;
17520;SDS011;8878;-33.370;-70.552;2022-10-18T07:41:43;1.33;;;1.27;;
17520;SDS011;8878;-33.370;-70.552;2022-10-18T07:44:12;2.50;;;1.60;;
17520;SDS011;8878;-33.370;-70.552;2022-10-18T07:46:43;4.77;;;1.73;;
17520;SDS011;8878;-33.370;-70.552;2022-10-18T07:49:13;2.57;;;1.90;;
17520;SDS011;8878;-33.370;-70.552;2022-10-18T07:51:42;1.57;;;0.90;;
17520;SDS011;8878;-33.370;-70.552;2022-10-18T07:54:12;1.70;;;1.37;;
17520;SDS011;8878;-33.370;-70.552;2022-10-18T07:56:41;1.13;;;1.03;;
17520;SDS011;8878;-33.370;-70.552;2022-10-18T07:59:11;0.93;;;0.93;;
17520;SDS011;8878;-33.370;-70.552;2022-10-18T08:01:40;1.57;;;1.53;;
17520;SDS011;8878;-33.370;-70.552;2022-10-18T08:04:12;1.77;;;1.47;;
17520;SDS011;8878;-33.370;-70.552;2022-10-18T08:06:41;2.10;;;1.90;;
17520;SDS011;8878;-33.370;-70.552;2022-10-18T08:09:11;3.00;;;1.30;;
17520;SDS011;8878;-33.370;-70.552;2022-10-18T08:11:40;2.53;;;0.83;;
17520;SDS011;8878;-33.370;-70.552;2022-10-18T08:14:09;2.00;;;1.60;;
17520;SDS011;8878;-33.370;-70.552;2022-10-18T08:16:38;2.60;;;1.80;;
17520;SDS011;8878;-33.370;-70.552;2022-10-18T08:19:09;1.33;;;1.23;;
17520;SDS011;8878;-33.370;-70.552;2022-10-18T08:21:39;1.77;;;1.67;;
17520;SDS011;8878;-33.370;-70.552;2022-10-18T08:24:08;3.70;;;1.67;;
17520;SDS011;8878;-33.370;-70.552;2022-10-18T08:26:37;1.10;;;1.00;;
17520;SDS011;8878;-33.370;-70.552;2022-10-18T08:29:08;4.40;;;2.00;;
17520;SDS011;8878;-33.370;-70.552;2022-10-18T08:31:38;2.20;;;2.00;;
17520;SDS011;8878;-33.370;-70.552;2022-10-18T08:34:07;4.00;;;2.37;;
17520;SDS011;8878;-33.370;-70.552;2022-10-18T08:36:38;2.53;;;1.37;;
17520;SDS011;8878;-33.370;-70.552;2022-10-18T08:39:08;2.23;;;1.50;;
17520;SDS011;8878;-33.370;-70.552;2022-10-18T08:41:54;1.90;;;1.23;;
17520;SDS011;8878;-33.370;-70.552;2022-10-18T08:44:43;2.70;;;1.43;;
17520;SDS011;8878;-33.370;-70.552;2022-10-18T08:47:15;2.67;;;1.50;;
17520;SDS011;8878;-33.370;-70.552;2022-10-18T08:49:50;1.03;;;0.93;;
17520;SDS011;8878;-33.370;-70.552;2022-10-18T08:52:32;1.23;;;1.07;;
17520;SDS011;8878;-33.370;-70.552;2022-10-18T08:55:08;2.33;;;1.73;;
17520;SDS011;8878;-33.370;-70.552;2022-10-18T08:57:42;3.27;;;1.90;;
17520;SDS011;8878;-33.370;-70.552;2022-10-18T09:00:17;1.37;;;1.33;;
17520;SDS011;8878;-33.370;-70.552;2022-10-18T09:02:53;1.60;;;1.27;;
17520;SDS011;8878;-33.370;-70.552;2022-10-18T09:05:33;6.13;;;1.23;;
17520;SDS011;8878;-33.370;-70.552;2022-10-18T09:08:20;3.10;;;2.47;;
17520;SDS011;8878;-33.370;-70.552;2022-10-18T09:11:07;1.60;;;1.33;;
17520;SDS011;8878;-33.370;-70.552;2022-10-18T09:13:56;2.20;;;1.20;;
17520;SDS011;8878;-33.370;-70.552;2022-10-18T09:16:43;2.10;;;1.60;;
17520;SDS011;8878;-33.370;-70.552;2022-10-18T09:19:19;1.40;;;1.30;;
17520;SDS011;8878;-33.370;-70.552;2022-10-18T09:22:02;2.33;;;2.00;;
17520;SDS011;8878;-33.370;-70.552;2022-10-18T09:24:39;1.27;;;1.20;;
17520;SDS011;8878;-33.370;-70.552;2022-10-18T09:27:14;1.33;;;1.13;;
17520;SDS011;8878;-33.370;-70.552;2022-10-18T09:29:48;1.30;;;1.23;;
17520;SDS011;8878;-33.370;-70.552;2022-10-18T09:32:30;2.40;;;1.50;;
17520;SDS011;8878;-33.370;-70.552;2022-10-18T09:35:12;2.90;;;2.30;;
17520;SDS011;8878;-33.370;-70.552;2022-10-18T09:37:45;3.33;;;1.80;;
17520;SDS011;8878;-33.370;-70.552;2022-10-18T09:40:17;2.23;;;2.03;;
17520;SDS011;8878;-33.370;-70.552;2022-10-18T09:42:52;1.60;;;1.13;;
17520;SDS011;8878;-33.370;-70.552;2022-10-18T09:45:25;8.87;;;2.30;;
17520;SDS011;8878;-33.370;-70.552;2022-10-18T09:48:00;3.30;;;2.53;;
17520;SDS011;8878;-33.370;-70.552;2022-10-18T09:50:37;3.23;;;2.23;;
17520;SDS011;8878;-33.370;-70.552;2022-10-18T09:53:15;2.63;;;2.07;;
17520;SDS011;8878;-33.370;-70.552;2022-10-18T09:55:50;4.07;;;1.53;;
17520;SDS011;8878;-33.370;-70.552;2022-10-18T09:58:26;1.57;;;1.47;;
17520;SDS011;8878;-33.370;-70.552;2022-10-18T10:01:01;4.67;;;2.53;;
17520;SDS011;8878;-33.370;-70.552;2022-10-18T10:03:32;8.43;;;2.37;;
17520;SDS011;8878;-33.370;-70.552;2022-10-18T10:06:13;2.43;;;2.17;;
17520;SDS011;8878;-33.370;-70.552;2022-10-18T10:08:48;2.03;;;1.87;;
17520;SDS011;8878;-33.370;-70.552;2022-10-18T10:11:26;1.80;;;1.57;;
17520;SDS011;8878;-33.370;-70.552;2022-10-18T10:14:01;9.77;;;2.00;;
17520;SDS011;8878;-33.370;-70.552;2022-10-18T10:16:41;4.27;;;2.60;;
17520;SDS011;8878;-33.370;-70.552;2022-10-18T10:19:15;4.20;;;1.93;;
17520;SDS011;8878;-33.370;-70.552;2022-10-18T10:21:46;4.47;;;2.03;;
17520;SDS011;8878;-33.370;-70.552;2022-10-18T10:24:25;1.97;;;1.80;;
17520;SDS011;8878;-33.370;-70.552;2022-10-18T10:27:02;2.30;;;1.60;;
17520;SDS011;8878;-33.370;-70.552;2022-10-18T10:32:27;1.67;;;1.57;;
17520;SDS011;8878;-33.370;-70.552;2022-10-18T10:34:58;3.77;;;2.47;;
17520;SDS011;8878;-33.370;-70.552;2022-10-18T10:37:29;4.47;;;2.83;;
17520;SDS011;8878;-33.370;-70.552;2022-10-18T10:40:09;2.07;;;1.53;;
17520;SDS011;8878;-33.370;-70.552;2022-10-18T10:42:54;3.77;;;2.20;;
17520;SDS011;8878;-33.370;-70.552;2022-10-18T10:45:28;2.83;;;1.73;;
17520;SDS011;8878;-33.370;-70.552;2022-10-18T10:48:03;2.20;;;1.00;;
17520;SDS011;8878;-33.370;-70.552;2022-10-18T10:50:59;2.10;;;1.50;;
17520;SDS011;8878;-33.370;-70.552;2022-10-18T10:53:37;1.13;;;1.07;;
17520;SDS011;8878;-33.370;-70.552;2022-10-18T10:56:17;3.63;;;1.57;;
17520;SDS011;8878;-33.370;-70.552;2022-10-18T10:58:51;4.07;;;2.93;;
17520;SDS011;8878;-33.370;-70.552;2022-10-18T11:01:25;3.27;;;2.47;;
17520;SDS011;8878;-33.370;-70.552;2022-10-18T11:03:57;2.43;;;2.17;;
17520;SDS011;8878;-33.370;-70.552;2022-10-18T11:06:29;2.57;;;2.33;;
17520;SDS011;8878;-33.370;-70.552;2022-10-18T11:09:11;3.70;;;2.33;;
17520;SDS011;8878;-33.370;-70.552;2022-10-18T11:12:03;3.67;;;2.03;;
17520;SDS011;8878;-33.370;-70.552;2022-10-18T11:14:40;2.07;;;1.50;;
17520;SDS011;8878;-33.370;-70.552;2022-10-18T11:17:18;2.70;;;1.97;;
17520;SDS011;8878;-33.370;-70.552;2022-10-18T11:23:01;1.57;;;1.47;;
17520;SDS011;8878;-33.370;-70.552;2022-10-18T11:25:38;3.20;;;1.80;;
17520;SDS011;8878;-33.370;-70.552;2022-10-18T11:28:17;3.17;;;1.63;;
17520;SDS011;8878;-33.370;-70.552;2022-10-18T11:30:59;3.57;;;2.17;;
17520;SDS011;8878;-33.370;-70.552;2022-10-18T11:33:38;3.10;;;2.80;;
17520;SDS011;8878;-33.370;-70.552;2022-10-18T11:36:16;4.13;;;2.07;;
17520;SDS011;8878;-33.370;-70.552;2022-10-18T11:38:51;8.37;;;3.63;;
17520;SDS011;8878;-33.370;-70.552;2022-10-18T11:41:27;7.63;;;2.03;;
17520;SDS011;8878;-33.370;-70.552;2022-10-18T11:44:06;15.83;;;2.13;;
17520;SDS011;8878;-33.370;-70.552;2022-10-18T11:46:53;3.43;;;2.00;;
17520;SDS011;8878;-33.370;-70.552;2022-10-18T11:49:40;2.37;;;2.10;;
17520;SDS011;8878;-33.370;-70.552;2022-10-18T11:52:23;4.03;;;2.87;;
17520;SDS011;8878;-33.370;-70.552;2022-10-18T11:57:54;3.67;;;2.23;;
17520;SDS011;8878;-33.370;-70.552;2022-10-18T12:00:36;5.47;;;2.87;;
17520;SDS011;8878;-33.370;-70.552;2022-10-18T12:06:09;4.73;;;2.90;;
17520;SDS011;8878;-33.370;-70.552;2022-10-18T12:08:43;4.70;;;2.60;;
17520;SDS011;8878;-33.370;-70.552;2022-10-18T12:11:17;6.83;;;2.20;;
17520;SDS011;8878;-33.370;-70.552;2022-10-18T12:13:51;3.87;;;2.60;;
17520;SDS011;8878;-33.370;-70.552;2022-10-18T12:16:28;3.63;;;2.87;;
17520;SDS011;8878;-33.370;-70.552;2022-10-18T12:19:05;3.80;;;3.03;;
17520;SDS011;8878;-33.370;-70.552;2022-10-18T12:21:40;5.57;;;3.43;;
17520;SDS011;8878;-33.370;-70.552;2022-10-18T12:24:11;2.47;;;1.70;;
17520;SDS011;8878;-33.370;-70.552;2022-10-18T12:26:44;2.43;;;2.07;;
17520;SDS011;8878;-33.370;-70.552;2022-10-18T12:29:16;4.73;;;2.67;;
17520;SDS011;8878;-33.370;-70.552;2022-10-18T12:31:54;5.57;;;3.50;;
17520;SDS011;8878;-33.370;-70.552;2022-10-18T12:34:32;6.83;;;3.30;;
17520;SDS011;8878;-33.370;-70.552;2022-10-18T12:37:25;5.60;;;2.93;;
17520;SDS011;8878;-33.370;-70.552;2022-10-18T12:40:10;4.47;;;2.17;;
17520;SDS011;8878;-33.370;-70.552;2022-10-18T12:42:43;5.43;;;2.53;;
17520;SDS011;8878;-33.370;-70.552;2022-10-18T12:51:00;4.43;;;2.23;;
17520;SDS011;8878;-33.370;-70.552;2022-10-18T12:53:52;2.37;;;1.87;;
17520;SDS011;8878;-33.370;-70.552;2022-10-18T12:56:44;6.43;;;2.83;;
17520;SDS011;8878;-33.370;-70.552;2022-10-18T13:02:29;5.10;;;2.47;;
17520;SDS011;8878;-33.370;-70.552;2022-10-18T13:08:38;4.00;;;2.77;;
17520;SDS011;8878;-33.370;-70.552;2022-10-18T13:11:50;3.30;;;2.70;;
17520;SDS011;8878;-33.370;-70.552;2022-10-18T13:17:34;3.90;;;3.37;;
17520;SDS011;8878;-33.370;-70.552;2022-10-18T13:20:17;4.83;;;2.73;;
17520;SDS011;8878;-33.370;-70.552;2022-10-18T13:23:04;6.87;;;3.40;;
17520;SDS011;8878;-33.370;-70.552;2022-10-18T13:25:52;2.80;;;2.03;;
17520;SDS011;8878;-33.370;-70.552;2022-10-18T13:28:33;5.40;;;2.43;;
17520;SDS011;8878;-33.370;-70.552;2022-10-18T13:31:21;4.13;;;3.07;;
17520;SDS011;8878;-33.370;-70.552;2022-10-18T13:37:19;9.53;;;3.77;;
17520;SDS011;8878;-33.370;-70.552;2022-10-18T13:43:13;4.40;;;3.43;;
17520;SDS011;8878;-33.370;-70.552;2022-10-18T13:46:23;6.47;;;3.80;;
17520;SDS011;8878;-33.370;-70.552;2022-10-18T13:49:35;5.93;;;3.37;;
17520;SDS011;8878;-33.370;-70.552;2022-10-18T13:52:41;12.27;;;4.37;;
17520;SDS011;8878;-33.370;-70.552;2022-10-18T13:55:41;7.50;;;4.13;;
17520;SDS011;8878;-33.370;-70.552;2022-10-18T13:58:34;6.80;;;3.00;;
17520;SDS011;8878;-33.370;-70.552;2022-10-18T14:01:31;4.27;;;2.83;;
17520;SDS011;8878;-33.370;-70.552;2022-10-18T14:07:23;8.23;;;3.33;;
17520;SDS011;8878;-33.370;-70.552;2022-10-18T14:10:06;14.87;;;3.13;;
17520;SDS011;8878;-33.370;-70.552;2022-10-18T14:13:10;6.13;;;4.10;;
17520;SDS011;8878;-33.370;-70.552;2022-10-18T14:15:53;6.13;;;2.83;;
17520;SDS011;8878;-33.370;-70.552;2022-10-18T14:18:40;7.00;;;4.37;;
17520;SDS011;8878;-33.370;-70.552;2022-10-18T14:21:15;6.40;;;4.33;;
17520;SDS011;8878;-33.370;-70.552;2022-10-18T14:23:59;7.13;;;3.03;;
17520;SDS011;8878;-33.370;-70.552;2022-10-18T14:26:37;5.37;;;4.23;;
17520;SDS011;8878;-33.370;-70.552;2022-10-18T14:29:16;8.43;;;4.40;;
17520;SDS011;8878;-33.370;-70.552;2022-10-18T14:31:52;5.60;;;4.13;;
17520;SDS011;8878;-33.370;-70.552;2022-10-18T14:34:23;8.30;;;3.73;;
17520;SDS011;8878;-33.370;-70.552;2022-10-18T14:36:53;14.03;;;3.90;;
17520;SDS011;8878;-33.370;-70.552;2022-10-18T14:39:23;5.87;;;4.40;;
17520;SDS011;8878;-33.370;-70.552;2022-10-18T14:41:55;13.43;;;5.73;;
17520;SDS011;8878;-33.370;-70.552;2022-10-18T14:44:25;8.50;;;4.00;;
17520;SDS011;8878;-33.370;-70.552;2022-10-18T14:47:11;8.03;;;4.53;;
17520;SDS011;8878;-33.370;-70.552;2022-10-18T14:49:43;10.00;;;4.80;;
17520;SDS011;8878;-33.370;-70.552;2022-10-18T14:52:14;19.50;;;4.53;;
17520;SDS011;8878;-33.370;-70.552;2022-10-18T14:54:45;5.93;;;3.83;;
17520;SDS011;8878;-33.370;-70.552;2022-10-18T14:57:16;7.00;;;3.90;;
17520;SDS011;8878;-33.370;-70.552;2022-10-18T14:59:49;8.03;;;4.23;;
17520;SDS011;8878;-33.370;-70.552;2022-10-18T15:02:25;4.87;;;3.67;;
17520;SDS011;8878;-33.370;-70.552;2022-10-18T15:04:56;7.87;;;5.33;;
17520;SDS011;8878;-33.370;-70.552;2022-10-18T15:07:28;8.90;;;4.57;;
17520;SDS011;8878;-33.370;-70.552;2022-10-18T15:09:59;10.80;;;5.53;;
17520;SDS011;8878;-33.370;-70.552;2022-10-18T15:12:29;9.07;;;4.80;;
17520;SDS011;8878;-33.370;-70.552;2022-10-18T15:15:00;6.30;;;4.40;;
17520;SDS011;8878;-33.370;-70.552;2022-10-18T15:17:32;9.37;;;5.60;;
17520;SDS011;8878;-33.370;-70.552;2022-10-18T15:20:15;35.37;;;4.20;;
17520;SDS011;8878;-33.370;-70.552;2022-10-18T15:22:47;7.10;;;3.80;;
17520;SDS011;8878;-33.370;-70.552;2022-10-18T15:25:16;8.63;;;4.05;;
17520;SDS011;8878;-33.370;-70.552;2022-10-18T15:27:49;10.80;;;4.53;;
17520;SDS011;8878;-33.370;-70.552;2022-10-18T15:30:23;7.40;;;3.80;;
17520;SDS011;8878;-33.370;-70.552;2022-10-18T15:32:56;10.55;;;4.30;;
17520;SDS011;8878;-33.370;-70.552;2022-10-18T15:35:27;7.93;;;4.10;;
17520;SDS011;8878;-33.370;-70.552;2022-10-18T15:37:58;17.08;;;6.10;;
17520;SDS011;8878;-33.370;-70.552;2022-10-18T15:40:33;8.98;;;4.88;;
17520;SDS011;8878;-33.370;-70.552;2022-10-18T15:46:05;15.95;;;5.75;;
17520;SDS011;8878;-33.370;-70.552;2022-10-18T15:48:57;5.60;;;3.67;;